sensor_id;sensor_type;location;lat;lon;timestamp;pressure;altitude;pressure_sealevel;temperature;humidity
12913;BME280;6524;51.368;11.984;2024-01-15T00:04:07;151492.56;;;-0.58;69.44
12913;BME280;6524;51.368;11.984;2024-01-15T00:09:07;151484.78;;;-0.61;69.79
12913;BME280;6524;51.368;11.984;2024-01-15T00:14:08;151412.34;;;-0.90;70.18
12913;BME280;6524;51.368;11.984;2024-01-15T00:19:08;151403.31;;;-0.93;70.95
12913;BME280;6524;51.368;11.984;2024-01-15T00:24:09;151385.22;;;-1.00;71.06
12913;BME280;6524;51.368;11.984;2024-01-15T00:29:09;151403.31;;;-0.93;71.11
12913;BME280;6524;51.368;11.984;2024-01-15T00:34:09;151377.47;;;-1.03;70.61
12913;BME280;6524;51.368;11.984;2024-01-15T00:39:10;151440.81;;;-0.78;69.93
12913;BME280;6524;51.368;11.984;2024-01-15T00:44:11;151487.38;;;-0.60;68.95
12913;BME280;6524;51.368;11.984;2024-01-15T00:49:12;151470.56;;;-0.67;69.27
12913;BME280;6524;51.368;11.984;2024-01-15T00:54:13;151455.03;;;-0.73;68.44
12913;BME280;6524;51.368;11.984;2024-01-15T00:59:13;151455.03;;;-0.73;68.79
12913;BME280;6524;51.368;11.984;2024-01-15T05:04:38;151281.81;;;-1.41;67.82
12913;BME280;6524;51.368;11.984;2024-01-15T05:09:38;151297.34;;;-1.35;67.16
12913;BME280;6524;51.368;11.984;2024-01-15T05:14:39;151212.03;;;-1.69;67.85
12913;BME280;6524;51.368;11.984;2024-01-15T05:19:39;151237.88;;;-1.59;68.43
12913;BME280;6524;51.368;11.984;2024-01-15T05:24:39;151297.34;;;-1.35;67.30
12913;BME280;6524;51.368;11.984;2024-01-15T05:29:40;151186.22;;;-1.79;68.66
12913;BME280;6524;51.368;11.984;2024-01-15T05:34:40;151224.97;;;-1.64;68.16
12913;BME280;6524;51.368;11.984;2024-01-15T05:39:40;151243.06;;;-1.56;68.58
12913;BME280;6524;51.368;11.984;2024-01-15T05:44:40;151253.38;;;-1.52;67.73
12913;BME280;6524;51.368;11.984;2024-01-15T05:49:41;151256.00;;;-1.51;67.14
12913;BME280;6524;51.368;11.984;2024-01-15T05:54:41;151263.75;;;-1.48;67.34
12913;BME280;6524;51.368;11.984;2024-01-15T05:59:43;151227.56;;;-1.63;68.38
12913;BME280;6524;51.368;11.984;2024-01-15T06:04:44;151224.97;;;-1.64;67.72
12913;BME280;6524;51.368;11.984;2024-01-15T06:09:44;151239.19;;;-1.58;68.48
12913;BME280;6524;51.368;11.984;2024-01-15T06:14:45;151241.78;;;-1.57;68.56
12913;BME280;6524;51.368;11.984;2024-01-15T06:19:45;151279.25;;;-1.42;68.53
12913;BME280;6524;51.368;11.984;2024-01-15T06:24:45;151237.88;;;-1.59;68.16
12913;BME280;6524;51.368;11.984;2024-01-15T06:29:46;151231.44;;;-1.61;67.82
12913;BME280;6524;51.368;11.984;2024-01-15T06:34:49;151323.16;;;-1.25;66.84
12913;BME280;6524;51.368;11.984;2024-01-15T06:39:49;151305.09;;;-1.32;67.22
12913;BME280;6524;51.368;11.984;2024-01-15T06:44:49;151243.06;;;-1.56;68.12
12913;BME280;6524;51.368;11.984;2024-01-15T06:49:50;151279.25;;;-1.42;67.69
12913;BME280;6524;51.368;11.984;2024-01-15T06:54:51;151254.72;;;-1.52;67.61
12913;BME280;6524;51.368;11.984;2024-01-15T06:59:52;151237.88;;;-1.59;67.56
12913;BME280;6524;51.368;11.984;2024-01-15T07:04:52;151248.25;;;-1.54;67.49
12913;BME280;6524;51.368;11.984;2024-01-15T07:09:52;151224.97;;;-1.64;68.45
12913;BME280;6524;51.368;11.984;2024-01-15T07:14:53;151276.63;;;-1.43;67.82
12913;BME280;6524;51.368;11.984;2024-01-15T07:19:55;151237.88;;;-1.59;67.98
12913;BME280;6524;51.368;11.984;2024-01-15T07:24:56;151346.44;;;-1.16;67.38
12913;BME280;6524;51.368;11.984;2024-01-15T07:29:56;152034.91;;;1.56;66.68
12913;BME280;6524;51.368;11.984;2024-01-15T07:34:56;152346.00;;;2.79;61.57
12913;BME280;6524;51.368;11.984;2024-01-15T07:39:57;151739.69;;;0.40;60.42
12913;BME280;6524;51.368;11.984;2024-01-15T07:44:57;151462.81;;;-0.70;64.14
12913;BME280;6524;51.368;11.984;2024-01-15T07:49:57;151354.19;;;-1.13;65.62
12913;BME280;6524;51.368;11.984;2024-01-15T07:54:58;151296.06;;;-1.36;67.13
12913;BME280;6524;51.368;11.984;2024-01-15T07:59:59;151312.84;;;-1.29;67.00
12913;BME280;6524;51.368;11.984;2024-01-15T08:05:01;151275.34;;;-1.44;67.45
12913;BME280;6524;51.368;11.984;2024-01-15T08:10:02;151256.00;;;-1.51;67.74
12913;BME280;6524;51.368;11.984;2024-01-15T08:15:02;151339.97;;;-1.18;67.58
12913;BME280;6524;51.368;11.984;2024-01-15T08:20:03;151305.09;;;-1.32;67.68
12913;BME280;6524;51.368;11.984;2024-01-15T08:25:05;151359.38;;;-1.10;67.00
12913;BME280;6524;51.368;11.984;2024-01-15T08:30:06;151343.88;;;-1.17;66.98
12913;BME280;6524;51.368;11.984;2024-01-15T08:35:07;151318.03;;;-1.27;67.46
12913;BME280;6524;51.368;11.984;2024-01-15T08:40:07;151398.16;;;-0.95;66.62
12913;BME280;6524;51.368;11.984;2024-01-15T08:45:08;151429.19;;;-0.83;66.35
12913;BME280;6524;51.368;11.984;2024-01-15T08:50:09;151456.31;;;-0.72;65.96
12913;BME280;6524;51.368;11.984;2024-01-15T08:55:10;151433.06;;;-0.81;66.46
12913;BME280;6524;51.368;11.984;2024-01-15T09:00:11;151413.69;;;-0.89;66.81
12913;BME280;6524;51.368;11.984;2024-01-15T09:05:13;151452.44;;;-0.74;66.97
12913;BME280;6524;51.368;11.984;2024-01-15T09:10:14;151532.66;;;-0.42;65.68
12913;BME280;6524;51.368;11.984;2024-01-15T09:15:15;151510.66;;;-0.51;66.01
12913;BME280;6524;51.368;11.984;2024-01-15T09:20:15;151593.41;;;-0.18;64.37
12913;BME280;6524;51.368;11.984;2024-01-15T09:25:16;151514.50;;;-0.49;65.53
12913;BME280;6524;51.368;11.984;2024-01-15T09:30:17;151548.16;;;-0.36;65.10
12913;BME280;6524;51.368;11.984;2024-01-15T09:35:17;151592.13;;;-0.18;64.39
12913;BME280;6524;51.368;11.984;2024-01-15T09:40:20;151623.22;;;-0.06;63.92
12913;BME280;6524;51.368;11.984;2024-01-15T09:45:20;151668.53;;;0.12;63.40
12913;BME280;6524;51.368;11.984;2024-01-15T09:50:21;151662.03;;;0.09;63.80
12913;BME280;6524;51.368;11.984;2024-01-15T09:55:22;151786.28;;;0.58;62.76
12913;BME280;6524;51.368;11.984;2024-01-15T10:00:24;151826.41;;;0.74;61.86
12913;BME280;6524;51.368;11.984;2024-01-15T10:05:26;151804.41;;;0.65;62.03
12913;BME280;6524;51.368;11.984;2024-01-15T10:10:27;151651.69;;;0.05;63.77
12913;BME280;6524;51.368;11.984;2024-01-15T10:15:28;151744.84;;;0.42;63.42
12913;BME280;6524;51.368;11.984;2024-01-15T10:20:28;151764.28;;;0.49;63.16
12913;BME280;6524;51.368;11.984;2024-01-15T10:25:29;151744.84;;;0.42;62.84
12913;BME280;6524;51.368;11.984;2024-01-15T10:30:32;151738.41;;;0.39;63.44
12913;BME280;6524;51.368;11.984;2024-01-15T10:35:34;151728.00;;;0.35;63.52
12913;BME280;6524;51.368;11.984;2024-01-15T10:40:34;151731.94;;;0.37;63.23
12913;BME280;6524;51.368;11.984;2024-01-15T10:45:35;151755.22;;;0.46;63.51
12913;BME280;6524;51.368;11.984;2024-01-15T10:50:36;151744.84;;;0.42;63.50
12913;BME280;6524;51.368;11.984;2024-01-15T10:55:37;151724.16;;;0.34;63.36
12913;BME280;6524;51.368;11.984;2024-01-15T11:00:38;151711.19;;;0.29;63.83
12913;BME280;6524;51.368;11.984;2024-01-15T11:05:41;151602.44;;;-0.14;65.02
12913;BME280;6524;51.368;11.984;2024-01-15T11:10:45;151638.75;;;-0.00;64.90
12913;BME280;6524;51.368;11.984;2024-01-15T11:41:58;151664.59;;;0.10;65.08
12913;BME280;6524;51.368;11.984;2024-01-15T11:47:01;151703.44;;;0.25;64.87
12913;BME280;6524;51.368;11.984;2024-01-15T11:52:06;151711.19;;;0.29;64.85
12913;BME280;6524;51.368;11.984;2024-01-15T11:57:10;151839.34;;;0.79;63.62
12913;BME280;6524;51.368;11.984;2024-01-15T12:02:15;151851.00;;;0.84;63.00
12913;BME280;6524;51.368;11.984;2024-01-15T12:07:16;151869.13;;;0.91;62.14
12913;BME280;6524;51.368;11.984;2024-01-15T12:12:27;151783.66;;;0.57;63.66
12913;BME280;6524;51.368;11.984;2024-01-15T12:17:30;151840.63;;;0.80;62.67
12913;BME280;6524;51.368;11.984;2024-01-15T12:22:30;151734.50;;;0.38;63.92
12913;BME280;6524;51.368;11.984;2024-01-15T12:27:31;151722.88;;;0.33;64.91
12913;BME280;6524;51.368;11.984;2024-01-15T12:32:31;151737.06;;;0.39;64.54
12913;BME280;6524;51.368;11.984;2024-01-15T12:37:32;151835.47;;;0.78;64.03
12913;BME280;6524;51.368;11.984;2024-01-15T12:42:33;151827.69;;;0.75;63.94
12913;BME280;6524;51.368;11.984;2024-01-15T12:47:34;151801.81;;;0.64;63.44
12913;BME280;6524;51.368;11.984;2024-01-15T12:52:35;151812.16;;;0.68;65.88
12913;BME280;6524;51.368;11.984;2024-01-15T12:57:38;151809.53;;;0.67;66.21
12913;BME280;6524;51.368;11.984;2024-01-15T13:02:39;151832.84;;;0.77;66.16
12913;BME280;6524;51.368;11.984;2024-01-15T13:07:44;151889.84;;;0.99;66.01
12913;BME280;6524;51.368;11.984;2024-01-15T13:12:47;151902.78;;;1.04;64.46
12913;BME280;6524;51.368;11.984;2024-01-15T13:17:48;151917.03;;;1.10;63.44
12913;BME280;6524;51.368;11.984;2024-01-15T13:22:49;151939.06;;;1.18;63.69
12913;BME280;6524;51.368;11.984;2024-01-15T13:27:50;151988.25;;;1.38;62.38
12913;BME280;6524;51.368;11.984;2024-01-15T13:32:50;151915.75;;;1.09;61.98
12913;BME280;6524;51.368;11.984;2024-01-15T13:37:51;151914.44;;;1.09;62.57
12913;BME280;6524;51.368;11.984;2024-01-15T13:42:53;151892.44;;;1.00;62.56
12913;BME280;6524;51.368;11.984;2024-01-15T13:47:54;151900.19;;;1.03;62.74
12913;BME280;6524;51.368;11.984;2024-01-15T13:52:55;151825.09;;;0.73;63.18
12913;BME280;6524;51.368;11.984;2024-01-15T13:57:55;151757.78;;;0.47;64.81
12913;BME280;6524;51.368;11.984;2024-01-15T14:02:56;151768.13;;;0.51;64.87
12913;BME280;6524;51.368;11.984;2024-01-15T14:07:57;151799.19;;;0.63;64.20
12913;BME280;6524;51.368;11.984;2024-01-15T14:12:59;151825.09;;;0.73;64.65
12913;BME280;6524;51.368;11.984;2024-01-15T14:17:59;151851.00;;;0.84;64.35
12913;BME280;6524;51.368;11.984;2024-01-15T14:23:01;151866.56;;;0.90;64.21
12913;BME280;6524;51.368;11.984;2024-01-15T14:28:01;151866.56;;;0.90;64.26
12913;BME280;6524;51.368;11.984;2024-01-15T14:33:02;151848.38;;;0.83;65.04
12913;BME280;6524;51.368;11.984;2024-01-15T14:38:03;151884.66;;;0.97;64.88
12913;BME280;6524;51.368;11.984;2024-01-15T14:43:03;151843.25;;;0.81;64.99
12913;BME280;6524;51.368;11.984;2024-01-15T14:48:04;151827.69;;;0.75;65.06
12913;BME280;6524;51.368;11.984;2024-01-15T14:53:05;151830.28;;;0.76;65.48
12913;BME280;6524;51.368;11.984;2024-01-15T14:58:05;151788.88;;;0.59;66.09
12913;BME280;6524;51.368;11.984;2024-01-15T15:03:06;151731.94;;;0.37;66.68
12913;BME280;6524;51.368;11.984;2024-01-15T15:08:06;151695.66;;;0.22;67.30
12913;BME280;6524;51.368;11.984;2024-01-15T15:13:12;151720.25;;;0.32;67.15
12913;BME280;6524;51.368;11.984;2024-01-15T15:18:13;151720.25;;;0.32;67.26
12913;BME280;6524;51.368;11.984;2024-01-15T15:23:13;151731.94;;;0.37;66.64
12913;BME280;6524;51.368;11.984;2024-01-15T15:28:14;151756.50;;;0.46;66.74
12913;BME280;6524;51.368;11.984;2024-01-15T15:33:16;151706.00;;;0.26;67.66
12913;BME280;6524;51.368;11.984;2024-01-15T15:38:18;151773.31;;;0.53;66.22
12913;BME280;6524;51.368;11.984;2024-01-15T15:43:19;151682.75;;;0.17;67.74
12913;BME280;6524;51.368;11.984;2024-01-15T15:48:19;151814.75;;;0.69;72.88
12913;BME280;6524;51.368;11.984;2024-01-15T15:53:20;151737.06;;;0.39;66.27
12913;BME280;6524;51.368;11.984;2024-01-15T15:58:22;151713.78;;;0.30;66.43
12913;BME280;6524;51.368;11.984;2024-01-15T16:03:22;151689.19;;;0.20;66.76
12913;BME280;6524;51.368;11.984;2024-01-15T16:08:23;151641.31;;;0.01;67.29
12913;BME280;6524;51.368;11.984;2024-01-15T16:13:23;151669.81;;;0.12;66.38
12913;BME280;6524;51.368;11.984;2024-01-15T16:18:24;151664.59;;;0.10;66.20
12913;BME280;6524;51.368;11.984;2024-01-15T16:23:27;151607.63;;;-0.12;67.21
12913;BME280;6524;51.368;11.984;2024-01-15T16:28:28;151610.22;;;-0.11;67.23
12913;BME280;6524;51.368;11.984;2024-01-15T16:33:29;151571.41;;;-0.27;67.54
12913;BME280;6524;51.368;11.984;2024-01-15T16:38:29;151576.59;;;-0.25;68.15
12913;BME280;6524;51.368;11.984;2024-01-15T16:43:30;151546.81;;;-0.36;67.93
12913;BME280;6524;51.368;11.984;2024-01-15T16:48:31;151620.66;;;-0.07;68.07
12913;BME280;6524;51.368;11.984;2024-01-15T16:53:32;151598.59;;;-0.16;67.60
12913;BME280;6524;51.368;11.984;2024-01-15T16:58:33;151597.31;;;-0.16;67.35
12913;BME280;6524;51.368;11.984;2024-01-15T17:03:34;151628.41;;;-0.04;66.19
12913;BME280;6524;51.368;11.984;2024-01-15T17:08:35;151549.44;;;-0.35;66.52
12913;BME280;6524;51.368;11.984;2024-01-15T17:13:35;151605.06;;;-0.13;66.43
12913;BME280;6524;51.368;11.984;2024-01-15T17:18:36;151597.31;;;-0.16;66.46
12913;BME280;6524;51.368;11.984;2024-01-15T17:23:36;151589.53;;;-0.20;66.99
12913;BME280;6524;51.368;11.984;2024-01-15T17:28:38;151633.56;;;-0.02;66.41
12913;BME280;6524;51.368;11.984;2024-01-15T17:33:38;151643.94;;;0.02;65.72
12913;BME280;6524;51.368;11.984;2024-01-15T17:38:39;151814.75;;;0.69;75.34
12913;BME280;6524;51.368;11.984;2024-01-15T17:43:39;151897.63;;;1.02;62.61
12913;BME280;6524;51.368;11.984;2024-01-15T17:48:40;151756.50;;;0.46;64.48
12913;BME280;6524;51.368;11.984;2024-01-15T17:53:41;151681.44;;;0.17;66.61
12913;BME280;6524;51.368;11.984;2024-01-15T17:58:41;151628.41;;;-0.04;67.79
12913;BME280;6524;51.368;11.984;2024-01-15T18:03:44;151581.78;;;-0.23;67.30
12913;BME280;6524;51.368;11.984;2024-01-15T18:08:44;151623.22;;;-0.06;66.58
12913;BME280;6524;51.368;11.984;2024-01-15T18:13:45;151629.69;;;-0.04;66.91
12913;BME280;6524;51.368;11.984;2024-01-15T18:18:46;151590.84;;;-0.19;65.97
12913;BME280;6524;51.368;11.984;2024-01-15T18:23:48;151586.94;;;-0.21;65.81
12913;BME280;6524;51.368;11.984;2024-01-15T18:28:49;151638.75;;;-0.00;65.47
12913;BME280;6524;51.368;11.984;2024-01-15T18:33:49;151669.81;;;0.12;65.49
12913;BME280;6524;51.368;11.984;2024-01-15T18:38:52;151552.03;;;-0.34;69.81
12913;BME280;6524;51.368;11.984;2024-01-15T18:43:56;151488.66;;;-0.59;72.31
12913;BME280;6524;51.368;11.984;2024-01-15T18:48:58;151519.69;;;-0.47;71.99
12913;BME280;6524;51.368;11.984;2024-01-15T18:53:59;151509.38;;;-0.51;73.05
12913;BME280;6524;51.368;11.984;2024-01-15T18:59:00;151519.69;;;-0.47;72.20
12913;BME280;6524;51.368;11.984;2024-01-15T19:04:00;151579.16;;;-0.24;71.34
12913;BME280;6524;51.368;11.984;2024-01-15T19:09:01;151514.50;;;-0.49;72.00
12913;BME280;6524;51.368;11.984;2024-01-15T19:14:04;151535.22;;;-0.41;71.63
12913;BME280;6524;51.368;11.984;2024-01-15T19:19:06;151488.66;;;-0.59;74.78
12913;BME280;6524;51.368;11.984;2024-01-15T19:24:06;151522.25;;;-0.46;76.41
12913;BME280;6524;51.368;11.984;2024-01-15T19:29:07;151488.66;;;-0.59;77.65
12913;BME280;6524;51.368;11.984;2024-01-15T19:34:09;151488.66;;;-0.59;77.13
12913;BME280;6524;51.368;11.984;2024-01-15T19:39:10;151416.25;;;-0.88;76.48
12913;BME280;6524;51.368;11.984;2024-01-15T19:44:10;151453.75;;;-0.73;77.15
12913;BME280;6524;51.368;11.984;2024-01-15T19:49:11;151467.94;;;-0.68;76.52
12913;BME280;6524;51.368;11.984;2024-01-15T19:54:12;151475.69;;;-0.64;75.24
12913;BME280;6524;51.368;11.984;2024-01-15T19:59:13;151465.38;;;-0.69;73.72
12913;BME280;6524;51.368;11.984;2024-01-15T20:04:14;151488.66;;;-0.59;71.87
12913;BME280;6524;51.368;11.984;2024-01-15T20:09:18;151563.69;;;-0.30;70.93
12913;BME280;6524;51.368;11.984;2024-01-15T20:14:24;151620.66;;;-0.07;70.38
12913;BME280;6524;51.368;11.984;2024-01-15T20:19:26;151558.50;;;-0.32;70.34
12913;BME280;6524;51.368;11.984;2024-01-15T20:24:27;151575.31;;;-0.25;70.91
12913;BME280;6524;51.368;11.984;2024-01-15T20:29:28;151640.03;;;0.00;70.25
12913;BME280;6524;51.368;11.984;2024-01-15T20:34:29;151563.69;;;-0.30;70.83
12913;BME280;6524;51.368;11.984;2024-01-15T20:39:29;151496.41;;;-0.56;70.33
12913;BME280;6524;51.368;11.984;2024-01-15T20:44:30;151493.84;;;-0.57;69.16
12913;BME280;6524;51.368;11.984;2024-01-15T20:49:30;151460.19;;;-0.71;69.57
12913;BME280;6524;51.368;11.984;2024-01-15T20:54:31;151439.53;;;-0.79;70.20
12913;BME280;6524;51.368;11.984;2024-01-15T20:59:32;151530.03;;;-0.43;69.02
12913;BME280;6524;51.368;11.984;2024-01-15T21:04:33;151470.56;;;-0.67;69.65
12913;BME280;6524;51.368;11.984;2024-01-15T21:09:33;151545.53;;;-0.37;68.84
12913;BME280;6524;51.368;11.984;2024-01-15T21:14:34;151532.66;;;-0.42;68.53
12913;BME280;6524;51.368;11.984;2024-01-15T21:19:36;151584.34;;;-0.22;67.96
12913;BME280;6524;51.368;11.984;2024-01-15T21:24:36;151568.81;;;-0.28;66.94
12913;BME280;6524;51.368;11.984;2024-01-15T21:29:37;151580.50;;;-0.23;66.77
12913;BME280;6524;51.368;11.984;2024-01-15T21:34:38;151615.41;;;-0.09;65.47
12913;BME280;6524;51.368;11.984;2024-01-15T21:39:38;151630.97;;;-0.03;64.33
12913;BME280;6524;51.368;11.984;2024-01-15T21:44:39;151656.84;;;0.07;64.55
12913;BME280;6524;51.368;11.984;2024-01-15T21:49:39;151597.31;;;-0.16;64.51
12913;BME280;6524;51.368;11.984;2024-01-15T21:54:40;151602.44;;;-0.14;64.55
12913;BME280;6524;51.368;11.984;2024-01-15T21:59:40;151662.03;;;0.09;63.22
12913;BME280;6524;51.368;11.984;2024-01-15T22:04:41;151607.63;;;-0.12;63.55
12913;BME280;6524;51.368;11.984;2024-01-15T22:09:41;151571.41;;;-0.27;63.63
12913;BME280;6524;51.368;11.984;2024-01-15T22:14:42;151593.41;;;-0.18;63.84
12913;BME280;6524;51.368;11.984;2024-01-15T22:19:42;151548.16;;;-0.36;63.88
12913;BME280;6524;51.368;11.984;2024-01-15T22:24:43;151542.97;;;-0.38;64.01
12913;BME280;6524;51.368;11.984;2024-01-15T22:29:43;151563.69;;;-0.30;63.38
12913;BME280;6524;51.368;11.984;2024-01-15T22:34:44;151610.22;;;-0.11;63.20
12913;BME280;6524;51.368;11.984;2024-01-15T22:39:44;151557.22;;;-0.32;63.48
12913;BME280;6524;51.368;11.984;2024-01-15T22:44:44;151586.94;;;-0.21;63.67
12913;BME280;6524;51.368;11.984;2024-01-15T22:49:45;151542.97;;;-0.38;63.87
12913;BME280;6524;51.368;11.984;2024-01-15T22:54:46;151515.78;;;-0.49;64.63
12913;BME280;6524;51.368;11.984;2024-01-15T22:59:48;151430.47;;;-0.82;68.00
12913;BME280;6524;51.368;11.984;2024-01-15T23:04:49;151385.22;;;-1.00;68.98
12913;BME280;6524;51.368;11.984;2024-01-15T23:09:49;151439.53;;;-0.79;69.13
12913;BME280;6524;51.368;11.984;2024-01-15T23:14:50;151392.97;;;-0.97;69.71
12913;BME280;6524;51.368;11.984;2024-01-15T23:19:50;151380.03;;;-1.02;70.31
12913;BME280;6524;51.368;11.984;2024-01-15T23:24:50;151457.63;;;-0.72;69.16
12913;BME280;6524;51.368;11.984;2024-01-15T23:29:51;151409.78;;;-0.91;69.63
12913;BME280;6524;51.368;11.984;2024-01-15T23:34:52;151502.88;;;-0.54;68.73
12913;BME280;6524;51.368;11.984;2024-01-15T23:39:53;151469.28;;;-0.67;68.91
12913;BME280;6524;51.368;11.984;2024-01-15T23:44:53;151456.31;;;-0.72;69.10
12913;BME280;6524;51.368;11.984;2024-01-15T23:49:53;151462.81;;;-0.70;68.67
12913;BME280;6524;51.368;11.984;2024-01-15T23:54:54;151498.97;;;-0.55;68.26
12913;BME280;6524;51.368;11.984;2024-01-15T23:59:54;151509.38;;;-0.51;68.27
